createdAt,value
2018-02-19T00:00:22.520Z,28.85
2018-02-19T00:02:50.030Z,27.48
2018-02-19T00:05:17.551Z,30.40
2018-02-19T00:07:45.045Z,28.73
2018-02-19T00:10:12.557Z,27.80
2018-02-19T00:12:40.060Z,28.87
2018-02-19T00:15:07.579Z,28.30
2018-02-19T00:17:35.084Z,28.30
2018-02-19T00:20:02.595Z,28.02
2018-02-19T00:22:30.089Z,28.05
2018-02-19T00:24:57.603Z,28.35
2018-02-19T00:27:25.116Z,26.45
2018-02-19T00:29:53.420Z,28.87
2018-02-19T00:32:20.971Z,28.58
2018-02-19T00:34:49.236Z,28.25
2018-02-19T00:37:17.509Z,28.30
2018-02-19T00:39:45.823Z,27.55
2018-02-19T00:42:13.318Z,28.25
2018-02-19T00:44:40.834Z,27.62
2018-02-19T00:47:08.349Z,27.77
2018-02-19T00:49:35.894Z,27.08
2018-02-19T00:52:03.401Z,26.87
2018-02-19T00:54:30.930Z,25.92
2018-02-19T00:56:58.449Z,27.50
2018-02-19T00:59:25.975Z,27.10
2018-02-19T01:01:53.516Z,25.45
2018-02-19T01:04:21.786Z,25.02
2018-02-19T01:06:50.092Z,24.17
2018-02-19T01:09:17.594Z,25.12
2018-02-19T01:11:45.082Z,23.90
2018-02-19T01:14:13.407Z,23.45
2018-02-19T01:16:40.912Z,23.80
2018-02-19T01:19:08.432Z,22.67
2018-02-19T01:21:35.983Z,24.55
2018-02-19T01:24:03.476Z,24.02
2018-02-19T01:26:30.990Z,24.20
2018-02-19T01:28:58.537Z,23.45
2018-02-19T01:31:26.036Z,23.73
2018-02-19T01:33:53.575Z,23.25
2018-02-19T01:36:21.068Z,23.90
2018-02-19T01:38:48.558Z,22.17
2018-02-19T01:41:16.849Z,23.62
2018-02-19T01:43:44.371Z,23.08
2018-02-19T01:46:11.868Z,21.77
2018-02-19T01:48:39.389Z,22.73
2018-02-19T01:51:07.668Z,21.15
2018-02-19T01:53:35.984Z,21.45
2018-02-19T01:56:03.510Z,22.13
2018-02-19T01:58:31.812Z,22.42
2018-02-19T02:00:59.306Z,22.75
2018-02-19T02:03:26.841Z,20.23
2018-02-19T02:05:54.387Z,21.25
2018-02-19T02:08:21.890Z,22.85
2018-02-19T02:10:49.431Z,21.45
2018-02-19T02:13:16.952Z,22.48
2018-02-19T02:15:44.475Z,21.90
2018-02-19T02:18:12.019Z,22.50
2018-02-19T02:20:39.563Z,23.12
2018-02-19T02:23:07.064Z,23.45
2018-02-19T02:25:35.343Z,21.33
2018-02-19T02:28:03.612Z,22.65
2018-02-19T02:30:31.899Z,21.62
2018-02-19T02:33:00.184Z,24.17
2018-02-19T02:35:28.479Z,22.85
2018-02-19T02:37:55.980Z,21.62
2018-02-19T02:40:23.511Z,21.73
2018-02-19T02:42:51.028Z,21.58
2018-02-19T02:45:19.315Z,21.12
2018-02-19T02:47:47.574Z,21.45
2018-02-19T02:50:15.874Z,21.55
2018-02-19T02:52:43.373Z,22.95
2018-02-19T02:55:10.887Z,22.60
2018-02-19T02:57:38.448Z,21.73
2018-02-19T03:00:05.945Z,21.85
2018-02-19T03:02:33.459Z,20.83
2018-02-19T03:05:01.741Z,20.73
2018-02-19T03:07:29.274Z,20.70
2018-02-19T03:09:57.594Z,19.10
2018-02-19T03:12:25.093Z,20.90
2018-02-19T03:14:52.635Z,18.48
2018-02-19T03:17:20.129Z,18.23
2018-02-19T03:19:48.407Z,18.10
2018-02-19T03:22:16.721Z,18.52
2018-02-19T03:24:44.209Z,18.23
2018-02-19T03:27:11.748Z,19.17
2018-02-19T03:29:39.243Z,18.12
2018-02-19T03:32:06.751Z,18.60
2018-02-19T03:34:34.290Z,18.10
2018-02-19T03:37:02.613Z,18.52
2018-02-19T03:39:30.191Z,17.80
2018-02-19T03:41:57.698Z,17.35
2018-02-19T03:44:25.208Z,17.08
2018-02-19T03:46:52.736Z,16.00
2018-02-19T03:49:20.282Z,16.60
2018-02-19T03:51:47.774Z,16.02
2018-02-19T03:54:15.300Z,16.20
2018-02-19T03:56:42.827Z,16.15
2018-02-19T03:59:11.097Z,15.98
2018-02-19T04:01:39.360Z,16.80
2018-02-19T04:04:06.870Z,16.37
2018-02-19T04:06:34.428Z,18.02
2018-02-19T04:09:01.939Z,17.40
2018-02-19T04:11:29.464Z,17.95
2018-02-19T04:13:56.995Z,17.65
2018-02-19T04:16:24.523Z,17.92
2018-02-19T04:18:52.807Z,17.55
2018-02-19T04:21:21.076Z,18.45
2018-02-19T04:23:49.389Z,19.92
2018-02-19T04:26:17.654Z,19.77
2018-02-19T04:28:45.164Z,18.40
2018-02-19T04:31:12.683Z,18.30
2018-02-19T04:33:40.193Z,18.52
2018-02-19T04:36:07.674Z,19.80
2018-02-19T04:38:35.968Z,20.23
2018-02-19T04:41:03.500Z,20.27
2018-02-19T04:43:31.765Z,19.67
2018-02-19T04:46:03.966Z,20.17
2018-02-19T04:48:34.402Z,20.83
2018-02-19T04:51:04.788Z,19.48
2018-02-19T04:53:33.105Z,19.85
2018-02-19T04:56:00.610Z,19.48
2018-02-19T04:58:28.110Z,21.37
2018-02-19T05:00:55.630Z,20.30
2018-02-19T05:03:23.133Z,22.02
2018-02-19T05:05:50.633Z,20.02
2018-02-19T05:08:18.168Z,21.65
2018-02-19T05:10:45.692Z,19.83
2018-02-19T05:13:13.985Z,20.15
2018-02-19T05:15:41.510Z,22.20
2018-02-19T05:18:09.787Z,20.60
2018-02-19T05:20:38.055Z,20.80
2018-02-19T05:23:06.383Z,19.87
2018-02-19T05:25:33.906Z,20.30
2018-02-19T05:28:02.172Z,22.20
2018-02-19T05:30:30.462Z,20.90
2018-02-19T05:32:58.785Z,21.75
2018-02-19T05:35:26.317Z,22.10
2018-02-19T05:37:53.821Z,20.65
2018-02-19T05:40:21.347Z,20.90
2018-02-19T05:42:48.853Z,21.02
2018-02-19T05:45:16.424Z,21.15
2018-02-19T05:47:44.690Z,21.48
2018-02-19T05:50:12.212Z,22.20
2018-02-19T05:52:39.751Z,23.15
2018-02-19T05:55:07.239Z,21.90
2018-02-19T05:57:34.757Z,21.33
2018-02-19T06:00:02.255Z,24.27
2018-02-19T06:02:29.774Z,22.62
2018-02-19T06:04:57.299Z,23.02
2018-02-19T06:07:24.834Z,21.55
2018-02-19T06:09:52.348Z,23.83
2018-02-19T06:12:19.863Z,24.00
2018-02-19T06:14:47.410Z,22.73
2018-02-19T06:17:14.898Z,22.02
2018-02-19T06:19:43.181Z,23.92
2018-02-19T06:22:11.447Z,22.90
2018-02-19T06:24:39.725Z,23.80
2018-02-19T06:27:08.016Z,23.55
2018-02-19T06:29:36.296Z,25.58
2018-02-19T06:32:04.587Z,24.65
2018-02-19T06:34:32.155Z,22.75
2018-02-19T06:36:59.650Z,23.77
2018-02-19T06:39:27.206Z,24.12
2018-02-19T06:41:54.731Z,24.30
2018-02-19T06:44:22.227Z,24.73
2018-02-19T06:46:49.743Z,23.90
2018-02-19T06:49:17.270Z,25.88
2018-02-19T06:51:45.569Z,24.27
2018-02-19T06:54:13.086Z,25.58
2018-02-19T06:56:40.630Z,25.00
2018-02-19T06:59:08.150Z,23.92
2018-02-19T07:01:35.646Z,24.25
2018-02-19T07:04:03.196Z,25.15
2018-02-19T07:06:30.712Z,25.52
2018-02-19T07:08:59.040Z,24.25
2018-02-19T07:11:26.575Z,24.45
2018-02-19T07:13:54.083Z,23.77
2018-02-19T07:16:21.603Z,24.15
2018-02-19T07:18:49.114Z,25.58
2018-02-19T07:21:17.389Z,24.40
2018-02-19T07:23:45.683Z,23.48
2018-02-19T07:26:13.199Z,23.52
2018-02-19T07:28:40.692Z,23.73
2018-02-19T07:31:08.218Z,24.48
2018-02-19T07:33:36.541Z,25.70
2018-02-19T07:36:04.091Z,23.85
2018-02-19T07:38:31.624Z,23.73
2018-02-19T07:40:59.910Z,24.73
2018-02-19T07:43:28.191Z,24.67
2018-02-19T07:45:56.483Z,23.77
2018-02-19T07:48:24.008Z,23.00
2018-02-19T07:50:52.300Z,23.17
2018-02-19T07:53:20.605Z,24.52
2018-02-19T07:55:48.143Z,23.90
2018-02-19T07:58:16.443Z,22.10
2018-02-19T08:00:45.293Z,23.08
2018-02-19T08:03:13.560Z,23.60
2018-02-19T08:05:41.111Z,23.90
2018-02-19T08:08:08.632Z,22.42
2018-02-19T08:10:36.129Z,23.00
2018-02-19T08:13:04.447Z,21.90
2018-02-19T08:15:31.959Z,22.77
2018-02-19T08:17:59.478Z,23.35
2018-02-19T08:20:27.001Z,22.48
2018-02-19T08:22:54.542Z,22.30
2018-02-19T08:25:22.064Z,24.37
2018-02-19T08:27:49.586Z,24.33
2018-02-19T08:30:17.862Z,25.52
2018-02-19T08:32:46.111Z,23.98
2018-02-19T08:35:13.657Z,22.58
2018-02-19T08:37:41.151Z,22.50
2018-02-19T08:40:09.448Z,23.95
2018-02-19T08:42:36.942Z,25.45
2018-02-19T08:45:04.458Z,23.92
2018-02-19T08:47:31.996Z,21.98
2018-02-19T08:50:00.293Z,23.83
2018-02-19T08:52:27.799Z,24.48
2018-02-19T08:54:55.300Z,23.70
2018-02-19T08:57:23.615Z,25.90
2018-02-19T08:59:51.168Z,23.83
2018-02-19T09:02:18.697Z,23.12
2018-02-19T09:04:46.223Z,23.85
2018-02-19T09:07:13.737Z,24.33
2018-02-19T09:09:41.265Z,24.85
2018-02-19T09:12:09.299Z,24.25
2018-02-19T09:14:36.796Z,25.52
2018-02-19T09:17:04.344Z,23.95
2018-02-19T09:19:32.641Z,25.65
2018-02-19T09:22:00.185Z,25.55
2018-02-19T09:24:28.476Z,24.20
2018-02-19T09:26:55.984Z,23.08
2018-02-19T09:29:23.522Z,22.42
2018-02-19T09:31:51.024Z,22.95
2018-02-19T09:34:18.558Z,22.65
2018-02-19T09:36:46.090Z,24.52
2018-02-19T09:39:13.589Z,24.33
2018-02-19T09:41:41.119Z,24.73
2018-02-19T09:44:08.642Z,24.37
2018-02-19T09:46:36.145Z,24.37
2018-02-19T09:49:03.710Z,23.75
2018-02-19T09:51:31.217Z,24.15
2018-02-19T09:53:58.747Z,24.27
2018-02-19T09:56:27.011Z,25.88
2018-02-19T09:58:54.532Z,23.92
2018-02-19T10:01:22.066Z,23.10
2018-02-19T10:03:49.586Z,22.30
2018-02-19T10:06:17.263Z,23.23
2018-02-19T10:08:45.344Z,23.55
2018-02-19T10:11:14.368Z,23.65
2018-02-19T10:13:41.898Z,25.20
2018-02-19T10:16:10.247Z,21.17
2018-02-19T10:18:37.849Z,23.27
2018-02-19T10:21:06.103Z,23.25
2018-02-19T10:23:34.375Z,22.05
2018-02-19T10:26:01.917Z,22.20
2018-02-19T10:28:29.472Z,21.60
2018-02-19T10:30:56.984Z,21.70
2018-02-19T10:33:24.498Z,22.05
2018-02-19T10:35:52.051Z,23.40
2018-02-19T10:38:19.557Z,23.02
2018-02-19T10:40:47.116Z,21.70
2018-02-19T10:43:14.636Z,21.70
2018-02-19T10:45:42.183Z,19.92
2018-02-19T10:48:09.715Z,18.35
2018-02-19T10:50:37.266Z,20.62
2018-02-19T10:53:04.792Z,21.65
2018-02-19T10:55:33.086Z,21.85
2018-02-19T10:58:00.611Z,21.48
2018-02-19T11:00:33.840Z,20.12
2018-02-19T11:03:01.359Z,21.05
2018-02-19T11:05:28.887Z,21.95
2018-02-19T11:07:56.420Z,22.70
2018-02-19T11:10:23.949Z,20.05
2018-02-19T11:12:52.249Z,17.02
2018-02-19T11:15:19.764Z,16.92
2018-02-19T11:17:47.326Z,20.10
2018-02-19T11:20:14.858Z,20.50
2018-02-19T11:22:42.402Z,21.30
2018-02-19T11:25:09.916Z,19.45
2018-02-19T11:27:38.195Z,19.98
2018-02-19T11:30:06.490Z,21.20
2018-02-19T11:32:34.024Z,20.00
2018-02-19T11:35:02.322Z,20.05
2018-02-19T11:37:29.847Z,20.73
2018-02-19T11:39:57.379Z,20.15
2018-02-19T11:42:24.871Z,19.27
2018-02-19T11:44:52.433Z,19.70
2018-02-19T11:47:20.713Z,19.87
2018-02-19T11:49:49.056Z,19.75
2018-02-19T11:52:16.554Z,20.65
2018-02-19T11:54:44.270Z,21.30
2018-02-19T11:57:11.823Z,19.95
2018-02-19T11:59:39.382Z,22.30
2018-02-19T12:02:06.895Z,21.50
2018-02-19T12:04:35.179Z,20.40
2018-02-19T12:07:03.471Z,22.60
2018-02-19T12:09:30.975Z,19.80
2018-02-19T12:11:58.499Z,20.70
2018-02-19T12:14:26.043Z,19.55
2018-02-19T12:16:53.588Z,18.52
2018-02-19T12:19:21.911Z,20.20
2018-02-19T12:21:49.417Z,17.67
2018-02-19T12:24:17.759Z,17.87
2018-02-19T12:26:45.276Z,18.50
2018-02-19T12:29:12.932Z,17.58
2018-02-19T12:31:40.464Z,19.08
2018-02-19T12:34:07.996Z,19.58
2018-02-19T12:36:35.490Z,18.65
2018-02-19T12:39:03.768Z,19.00
2018-02-19T12:41:32.050Z,19.17
2018-02-19T12:44:00.344Z,18.27
2018-02-19T12:46:27.880Z,20.48
2018-02-19T12:48:56.165Z,19.52
2018-02-19T12:51:24.463Z,19.00
2018-02-19T12:53:51.989Z,20.52
2018-02-19T12:56:20.278Z,18.98
2018-02-19T12:58:47.844Z,18.48
2018-02-19T13:01:15.354Z,18.08
2018-02-19T13:03:42.896Z,19.33
2018-02-19T13:06:10.447Z,19.67
2018-02-19T13:08:37.948Z,19.70
2018-02-19T13:11:05.467Z,19.67
2018-02-19T13:13:32.975Z,18.67
2018-02-19T13:16:01.267Z,18.90
2018-02-19T13:18:28.779Z,19.65
2018-02-19T13:20:56.351Z,19.10
2018-02-19T13:23:23.881Z,18.98
2018-02-19T13:25:51.394Z,17.87
2018-02-19T13:28:18.938Z,19.05
2018-02-19T13:30:46.454Z,19.50
2018-02-19T13:33:13.998Z,18.00
2018-02-19T13:35:41.509Z,18.90
2018-02-19T13:38:09.041Z,18.50
2018-02-19T13:40:36.581Z,18.95
2018-02-19T13:43:04.116Z,18.50
2018-02-19T13:45:31.614Z,18.92
2018-02-19T13:47:59.130Z,19.90
2018-02-19T13:50:27.091Z,17.95
2018-02-19T13:52:55.355Z,19.67
2018-02-19T13:55:23.668Z,18.48
2018-02-19T13:57:51.189Z,18.55
2018-02-19T14:00:19.505Z,18.85
2018-02-19T14:02:47.036Z,19.00
2018-02-19T14:05:15.332Z,18.00
2018-02-19T14:07:42.845Z,19.20
2018-02-19T14:10:10.376Z,18.85
2018-02-19T14:12:37.911Z,18.52
2018-02-19T14:15:05.726Z,18.15
2018-02-19T14:17:33.230Z,18.55
2018-02-19T14:20:00.770Z,18.27
2018-02-19T14:22:29.077Z,19.50
2018-02-19T14:24:56.601Z,18.87
2018-02-19T14:27:24.913Z,19.10
2018-02-19T14:29:52.423Z,18.92
2018-02-19T14:32:20.729Z,18.00
2018-02-19T14:34:48.240Z,19.15
2018-02-19T14:37:15.766Z,19.17
2018-02-19T14:39:43.277Z,19.30
2018-02-19T14:42:10.846Z,20.30
2018-02-19T14:44:39.141Z,18.67
2018-02-19T14:47:06.670Z,19.27
2018-02-19T14:49:34.208Z,19.05
2018-02-19T14:52:01.735Z,20.75
2018-02-19T14:54:29.273Z,19.90
2018-02-19T14:56:56.805Z,20.33
2018-02-19T14:59:24.322Z,19.35
2018-02-19T15:01:51.868Z,18.85
2018-02-19T15:04:19.403Z,18.55
2018-02-19T15:06:47.692Z,19.12
2018-02-19T15:09:15.193Z,18.60
2018-02-19T15:11:42.734Z,18.92
2018-02-19T15:14:10.250Z,20.75
2018-02-19T15:16:38.563Z,18.35
2018-02-19T15:19:06.213Z,18.80
2018-02-19T15:21:34.516Z,18.73
2018-02-19T15:24:02.066Z,17.77
2018-02-19T15:26:29.579Z,18.77
2018-02-19T15:28:57.902Z,18.27
2018-02-19T15:31:25.403Z,18.05
2018-02-19T15:33:52.967Z,18.27
2018-02-19T15:36:21.259Z,18.83
2018-02-19T15:38:49.551Z,18.90
2018-02-19T15:41:17.117Z,19.77
2018-02-19T15:43:44.676Z,20.30
2018-02-19T15:46:12.222Z,19.83
2018-02-19T15:48:39.719Z,20.67
2018-02-19T15:51:07.217Z,20.20
2018-02-19T15:53:35.521Z,19.25
2018-02-19T15:56:03.060Z,20.50
2018-02-19T15:58:31.332Z,19.35
2018-02-19T16:00:58.881Z,20.48
2018-02-19T16:03:26.423Z,19.80
2018-02-19T16:05:53.980Z,19.85
2018-02-19T16:08:21.509Z,19.80
2018-02-19T16:10:49.195Z,19.77
2018-02-19T16:13:16.971Z,20.20
2018-02-19T16:15:45.302Z,20.73
2018-02-19T16:18:12.837Z,19.98
2018-02-19T16:20:41.130Z,20.77
2018-02-19T16:23:08.762Z,20.12
2018-02-19T16:25:37.256Z,20.98
2018-02-19T16:28:04.817Z,20.45
2018-02-19T16:30:33.105Z,20.73
2018-02-19T16:33:00.668Z,21.08
2018-02-19T16:35:28.175Z,20.58
2018-02-19T16:37:55.774Z,20.65
2018-02-19T16:40:24.064Z,20.58
2018-02-19T16:42:51.612Z,21.12
2018-02-19T16:45:19.890Z,20.70
2018-02-19T16:47:47.401Z,19.33
2018-02-19T16:50:14.967Z,19.83
2018-02-19T16:52:42.442Z,19.77
2018-02-19T16:55:09.955Z,19.35
2018-02-19T16:57:37.475Z,19.85
2018-02-19T17:00:05.794Z,21.30
2018-02-19T17:02:33.340Z,21.60
2018-02-19T17:05:00.899Z,21.17
2018-02-19T17:07:28.433Z,22.20
2018-02-19T17:09:55.959Z,21.58
2018-02-19T17:12:24.278Z,21.55
2018-02-19T17:14:51.935Z,20.10
2018-02-19T17:17:19.514Z,20.85
2018-02-19T17:19:47.081Z,22.13
2018-02-19T17:22:14.974Z,21.67
2018-02-19T17:24:43.405Z,20.75
2018-02-19T17:27:11.100Z,21.40
2018-02-19T17:29:38.678Z,20.50
2018-02-19T17:32:06.262Z,21.52
2018-02-19T17:34:39.296Z,21.65
2018-02-19T17:37:06.873Z,20.90
2018-02-19T17:39:34.934Z,23.10
2018-02-19T17:42:02.489Z,21.83
2018-02-19T17:44:30.004Z,21.83
2018-02-19T17:46:58.366Z,21.12
2018-02-19T17:49:25.927Z,21.25
2018-02-19T17:51:53.491Z,20.90
2018-02-19T17:54:21.080Z,24.75
2018-02-19T17:56:48.638Z,24.35
2018-02-19T17:59:16.224Z,23.30
2018-02-19T18:01:43.794Z,22.87
2018-02-19T18:04:11.359Z,22.90
2018-02-19T18:06:38.919Z,21.35
2018-02-19T18:09:06.434Z,21.58
2018-02-19T18:11:33.955Z,22.45
2018-02-19T18:14:01.508Z,22.23
2018-02-19T18:16:29.010Z,23.50
2018-02-19T18:18:57.287Z,23.75
2018-02-19T18:21:24.822Z,21.80
2018-02-19T18:23:53.107Z,23.80
2018-02-19T18:26:20.658Z,22.67
2018-02-19T18:28:48.943Z,23.75
2018-02-19T18:31:17.239Z,23.30
2018-02-19T18:33:44.761Z,23.45
2018-02-19T18:36:12.301Z,25.10
2018-02-19T18:38:39.829Z,25.05
2018-02-19T18:41:07.352Z,24.12
2018-02-19T18:43:35.662Z,27.48
2018-02-19T18:46:03.204Z,26.60
2018-02-19T18:48:30.735Z,27.35
2018-02-19T18:50:58.287Z,23.50
2018-02-19T18:53:25.805Z,23.83
2018-02-19T18:55:53.386Z,24.40
2018-02-19T18:58:20.920Z,25.48
2018-02-19T19:00:48.440Z,24.02
2018-02-19T19:03:16.731Z,24.12
2018-02-19T19:05:45.044Z,23.90
2018-02-19T19:08:24.547Z,23.05
2018-02-19T19:10:52.103Z,24.30
2018-02-19T19:13:19.655Z,22.60
2018-02-19T19:15:47.954Z,24.48
2018-02-19T19:18:15.514Z,23.75
2018-02-19T19:20:43.111Z,23.33
2018-02-19T19:23:10.676Z,24.50
2018-02-19T19:25:38.214Z,23.55
2018-02-19T19:28:05.809Z,24.98
2018-02-19T19:30:33.416Z,26.00
2018-02-19T19:33:00.995Z,23.83
2018-02-19T19:35:28.528Z,23.62
2018-02-19T19:37:56.057Z,22.52
2018-02-19T19:40:24.482Z,23.75
2018-02-19T19:42:52.959Z,25.02
2018-02-19T19:45:20.505Z,24.25
2018-02-19T19:47:48.027Z,26.45
2018-02-19T19:50:15.548Z,26.58
2018-02-19T19:52:43.645Z,27.70
2018-02-19T19:55:11.304Z,25.48
2018-02-19T19:57:39.917Z,25.40
2018-02-19T20:00:08.291Z,25.80
2018-02-19T20:02:35.843Z,25.23
2018-02-19T20:05:03.358Z,24.05
2018-02-19T20:07:31.088Z,25.23
2018-02-19T20:09:59.547Z,25.60
2018-02-19T20:12:27.888Z,23.40
2018-02-19T20:14:55.397Z,25.40
2018-02-19T20:17:23.723Z,27.80
2018-02-19T20:19:51.716Z,26.65
2018-02-19T20:22:19.427Z,26.92
2018-02-19T20:24:46.996Z,26.20
2018-02-19T20:27:14.623Z,24.77
2018-02-19T20:29:43.256Z,24.58
2018-02-19T20:32:10.840Z,25.33
2018-02-19T20:34:38.459Z,26.87
2018-02-19T20:37:05.962Z,26.40
2018-02-19T20:39:34.524Z,25.37
2018-02-19T20:42:02.346Z,26.90
2018-02-19T20:44:29.924Z,26.30
2018-02-19T20:46:57.469Z,26.00
2018-02-19T20:49:25.732Z,27.00
2018-02-19T20:51:54.151Z,27.87
2018-02-19T20:54:21.998Z,26.67
2018-02-19T20:56:49.603Z,26.73
2018-02-19T20:59:17.121Z,26.40
2018-02-19T21:01:44.851Z,26.45
2018-02-19T21:04:13.426Z,26.55
2018-02-19T21:06:40.978Z,25.73
2018-02-19T21:09:08.530Z,27.40
2018-02-19T21:11:36.050Z,25.60
2018-02-19T21:14:03.943Z,26.85
2018-02-19T21:16:31.681Z,27.42
2018-02-19T21:19:00.045Z,26.42
2018-02-19T21:21:27.577Z,26.02
2018-02-19T21:23:55.366Z,27.35
2018-02-19T21:26:24.032Z,25.52
2018-02-19T21:28:51.608Z,27.75
2018-02-19T21:31:20.432Z,27.70
2018-02-19T21:33:47.981Z,26.83
2018-02-19T21:36:15.503Z,28.38
2018-02-19T21:38:43.845Z,27.90
2018-02-19T21:41:11.370Z,27.50
2018-02-19T21:43:39.077Z,29.65
2018-02-19T21:46:06.591Z,29.80
2018-02-19T21:48:34.132Z,29.20
2018-02-19T21:51:02.393Z,29.80
2018-02-19T21:53:31.170Z,29.63
2018-02-19T21:55:59.046Z,29.67
2018-02-19T21:58:27.731Z,27.25
2018-02-19T22:00:56.007Z,27.58
2018-02-19T22:03:24.320Z,28.42
2018-02-19T22:05:51.817Z,28.50
2018-02-19T22:08:19.337Z,27.33
2018-02-19T22:10:46.886Z,29.23
2018-02-19T22:13:14.407Z,27.90
2018-02-19T22:15:41.903Z,27.27
2018-02-19T22:18:09.435Z,27.15
2018-02-19T22:20:37.708Z,29.20
2018-02-19T22:23:05.285Z,28.83
2018-02-19T22:25:32.782Z,30.05
2018-02-19T22:28:00.313Z,28.05
2018-02-19T22:30:27.832Z,29.65
2018-02-19T22:32:55.399Z,29.85
2018-02-19T22:35:23.746Z,28.85
2018-02-19T22:37:52.010Z,29.33
2018-02-19T22:40:19.531Z,28.95
2018-02-19T22:42:47.837Z,29.87
2018-02-19T22:45:15.378Z,29.92
2018-02-19T22:47:42.895Z,27.13
2018-02-19T22:50:10.425Z,29.42
2018-02-19T22:52:37.986Z,28.67
2018-02-19T22:55:05.514Z,29.48
2018-02-19T22:57:33.014Z,28.58
2018-02-19T23:00:00.557Z,27.73
2018-02-19T23:02:28.061Z,27.62
2018-02-19T23:04:56.350Z,28.95
2018-02-19T23:07:24.619Z,28.52
2018-02-19T23:09:52.899Z,27.83
2018-02-19T23:12:21.199Z,27.42
2018-02-19T23:14:48.691Z,27.27
2018-02-19T23:17:16.195Z,27.83
2018-02-19T23:19:44.470Z,28.77
2018-02-19T23:22:12.736Z,26.65
2018-02-19T23:24:41.076Z,28.92
2018-02-19T23:27:08.572Z,26.83
2018-02-19T23:29:36.827Z,28.50
2018-02-19T23:32:04.346Z,27.92
2018-02-19T23:34:31.854Z,27.13
2018-02-19T23:36:59.370Z,28.70
2018-02-19T23:39:26.858Z,28.38
2018-02-19T23:41:54.398Z,26.50
2018-02-19T23:44:21.910Z,27.02
2018-02-19T23:46:50.214Z,27.27
2018-02-19T23:49:17.732Z,26.45
2018-02-19T23:51:45.263Z,28.48
2018-02-19T23:54:19.624Z,28.30
2018-02-19T23:56:47.921Z,27.13
2018-02-19T23:59:15.441Z,27.50
